createdAt,value
2023-05-04T00:01:11.097Z,9.98
2023-05-04T00:03:38.964Z,12.10
2023-05-04T00:06:06.973Z,10.63
2023-05-04T00:08:34.138Z,10.50
2023-05-04T00:11:02.081Z,10.43
2023-05-04T00:13:29.832Z,11.43
2023-05-04T00:15:57.552Z,11.45
2023-05-04T00:18:24.895Z,11.10
2023-05-04T00:20:54.015Z,10.98
2023-05-04T00:23:21.367Z,12.75
2023-05-04T00:25:48.702Z,12.70
2023-05-04T00:28:16.542Z,17.48
2023-05-04T00:30:44.240Z,14.05
2023-05-04T00:33:11.893Z,14.45
2023-05-04T00:35:40.127Z,14.13
2023-05-04T00:38:07.913Z,14.73
2023-05-04T00:40:36.458Z,14.07
2023-05-04T00:43:04.023Z,15.77
2023-05-04T00:45:32.076Z,15.43
2023-05-04T00:47:59.580Z,14.43
2023-05-04T00:50:28.714Z,15.80
2023-05-04T00:52:58.525Z,16.05
2023-05-04T00:55:26.350Z,13.18
2023-05-04T00:57:53.865Z,14.63
2023-05-04T01:00:21.576Z,14.35
2023-05-04T01:02:50.148Z,13.00
2023-05-04T01:05:17.871Z,13.60
2023-05-04T01:08:09.922Z,14.00
2023-05-04T01:10:55.184Z,14.95
2023-05-04T01:13:22.801Z,12.00
2023-05-04T01:15:50.771Z,14.25
2023-05-04T01:18:18.313Z,14.77
2023-05-04T01:20:46.092Z,14.75
2023-05-04T01:23:13.496Z,15.00
2023-05-04T01:26:05.957Z,15.82
2023-05-04T01:28:50.731Z,13.43
2023-05-04T01:31:22.866Z,15.90
2023-05-04T01:33:54.027Z,16.13
2023-05-04T01:36:22.288Z,19.92
2023-05-04T01:38:53.181Z,14.75
2023-05-04T01:41:21.625Z,13.48
2023-05-04T01:43:50.913Z,16.40
2023-05-04T01:46:18.486Z,15.60
2023-05-04T01:48:46.028Z,17.83
2023-05-04T01:51:13.446Z,18.52
2023-05-04T01:53:40.921Z,17.13
2023-05-04T01:56:08.424Z,16.83
2023-05-04T01:58:35.909Z,17.42
2023-05-04T02:01:03.419Z,17.40
2023-05-04T02:03:32.454Z,17.80
2023-05-04T02:06:01.166Z,19.02
2023-05-04T02:08:28.643Z,18.77
2023-05-04T02:10:56.031Z,18.95
2023-05-04T02:13:24.759Z,17.80
2023-05-04T02:15:52.035Z,17.52
2023-05-04T02:18:19.311Z,18.30
2023-05-04T02:20:46.674Z,17.55
2023-05-04T02:23:15.590Z,17.30
2023-05-04T02:25:42.778Z,19.05
2023-05-04T02:28:10.596Z,17.23
2023-05-04T02:30:37.975Z,17.77
2023-05-04T02:33:05.344Z,19.80
2023-05-04T02:35:32.891Z,17.83
2023-05-04T02:38:00.322Z,20.55
2023-05-04T02:40:27.785Z,20.50
2023-05-04T02:42:56.010Z,18.30
2023-05-04T02:45:23.419Z,19.15
2023-05-04T02:47:51.269Z,18.42
2023-05-04T02:50:18.595Z,18.77
2023-05-04T02:52:46.030Z,20.20
2023-05-04T02:55:13.428Z,18.92
2023-05-04T02:57:41.023Z,20.02
2023-05-04T03:00:09.015Z,19.35
2023-05-04T03:02:36.463Z,21.25
2023-05-04T03:05:04.479Z,18.88
2023-05-04T03:07:31.851Z,20.15
2023-05-04T03:10:00.215Z,18.60
2023-05-04T03:12:27.619Z,20.73
2023-05-04T03:14:55.271Z,20.70
2023-05-04T03:17:22.799Z,22.13
2023-05-04T03:19:50.700Z,23.83
2023-05-04T03:22:18.938Z,20.38
2023-05-04T03:24:46.798Z,20.92
2023-05-04T03:27:15.152Z,21.75
2023-05-04T03:29:42.860Z,23.40
2023-05-04T03:32:10.474Z,23.52
2023-05-04T03:34:37.876Z,23.27
2023-05-04T03:37:08.007Z,22.35
2023-05-04T03:39:35.503Z,21.40
2023-05-04T03:42:03.727Z,21.83
2023-05-04T03:44:31.270Z,23.05
2023-05-04T03:46:58.604Z,22.63
2023-05-04T03:49:26.176Z,25.35
2023-05-04T03:51:53.825Z,25.38
2023-05-04T03:54:23.232Z,24.40
2023-05-04T03:56:50.710Z,24.40
2023-05-04T03:59:18.869Z,26.38
2023-05-04T04:01:47.015Z,24.20
2023-05-04T04:04:14.464Z,23.92
2023-05-04T04:06:43.455Z,26.45
2023-05-04T04:09:10.996Z,24.60
2023-05-04T04:11:38.260Z,23.17
2023-05-04T04:14:06.525Z,22.58
2023-05-04T04:16:33.840Z,25.05
2023-05-04T04:19:02.075Z,23.20
2023-05-04T04:21:29.572Z,24.95
2023-05-04T04:23:56.956Z,23.63
2023-05-04T04:26:24.341Z,25.33
2023-05-04T04:28:51.832Z,26.27
2023-05-04T04:31:19.977Z,24.48
2023-05-04T04:33:49.432Z,23.98
2023-05-04T04:36:16.926Z,24.27
2023-05-04T04:38:44.851Z,25.48
2023-05-04T04:41:12.247Z,23.02
2023-05-04T04:43:39.600Z,24.35
2023-05-04T04:46:06.994Z,24.50
2023-05-04T04:48:34.459Z,24.42
2023-05-04T04:51:01.815Z,23.45
2023-05-04T04:53:29.111Z,24.50
2023-05-04T04:55:56.453Z,26.88
2023-05-04T04:58:23.764Z,26.95
2023-05-04T05:00:52.833Z,24.75
2023-05-04T05:03:20.253Z,23.83
2023-05-04T05:05:47.596Z,24.13
2023-05-04T05:08:15.105Z,24.00
2023-05-04T05:10:43.940Z,23.45
2023-05-04T05:13:11.691Z,25.75
2023-05-04T05:15:39.280Z,23.35
2023-05-04T05:18:07.141Z,23.45
2023-05-04T05:20:34.585Z,24.50
2023-05-04T05:23:01.878Z,25.02
2023-05-04T05:25:29.892Z,24.98
2023-05-04T05:27:57.220Z,24.48
2023-05-04T05:30:24.900Z,29.42
2023-05-04T05:32:53.664Z,23.27
2023-05-04T05:35:21.305Z,25.27
2023-05-04T05:37:49.467Z,24.65
2023-05-04T05:40:16.875Z,22.55
2023-05-04T05:42:45.065Z,23.40
2023-05-04T05:45:14.025Z,24.98
2023-05-04T05:47:45.130Z,24.60
2023-05-04T05:50:13.890Z,21.92
2023-05-04T05:53:01.871Z,20.48
2023-05-04T05:58:10.853Z,18.25
2023-05-04T06:00:41.546Z,22.10
2023-05-04T06:03:09.120Z,25.45
2023-05-04T06:05:36.870Z,23.95
2023-05-04T06:08:04.464Z,20.77
2023-05-04T06:10:32.139Z,23.92
2023-05-04T06:13:46.868Z,17.63
2023-05-04T06:15:52.745Z,19.52
2023-05-04T06:18:21.029Z,18.77
2023-05-04T06:20:48.644Z,18.38
2023-05-04T06:23:16.652Z,21.58
2023-05-04T06:25:44.072Z,24.55
2023-05-04T06:28:11.516Z,20.65
2023-05-04T06:30:38.983Z,24.15
2023-05-04T06:33:07.379Z,21.80
2023-05-04T06:35:35.283Z,21.60
2023-05-04T06:38:03.299Z,23.98
2023-05-04T06:40:30.954Z,23.52
2023-05-04T06:42:58.708Z,15.82
2023-05-04T06:45:26.530Z,25.45
2023-05-04T06:48:01.377Z,20.23
2023-05-04T06:50:29.264Z,25.23
2023-05-04T06:53:23.690Z,23.25
2023-05-04T06:56:34.830Z,18.15
2023-05-04T06:59:38.195Z,21.52
2023-05-04T07:02:33.915Z,16.92
2023-05-04T07:05:03.083Z,21.92
2023-05-04T07:14:12.319Z,19.80
2023-05-04T07:16:40.089Z,11.15
2023-05-04T07:19:13.086Z,12.18
2023-05-04T07:21:49.006Z,17.50
2023-05-04T07:24:16.887Z,13.85
2023-05-04T07:26:44.978Z,14.80
2023-05-04T07:29:45.721Z,17.33
2023-05-04T07:32:19.469Z,16.25
2023-05-04T07:34:56.760Z,14.85
2023-05-04T07:37:54.377Z,10.68
2023-05-04T07:40:37.897Z,18.60
2023-05-04T07:43:15.986Z,14.40
2023-05-04T07:45:43.917Z,17.70
2023-05-04T07:48:33.894Z,17.58
2023-05-04T07:51:30.862Z,17.88
2023-05-04T07:53:58.627Z,18.95
2023-05-04T07:57:09.565Z,19.00
2023-05-04T07:59:35.281Z,19.48
2023-05-04T08:02:28.183Z,18.88
2023-05-04T08:05:15.119Z,19.27
2023-05-04T08:07:42.998Z,18.00
2023-05-04T08:10:29.399Z,17.95
2023-05-04T08:12:59.744Z,18.35
2023-05-04T08:15:28.396Z,17.02
2023-05-04T08:21:00.248Z,18.45
2023-05-04T08:23:37.473Z,16.80
2023-05-04T08:26:19.119Z,17.95
2023-05-04T08:28:47.443Z,18.08
2023-05-04T08:31:30.565Z,16.50
2023-05-04T08:34:01.608Z,16.35
2023-05-04T08:36:38.619Z,16.60
2023-05-04T08:47:08.078Z,14.60
2023-05-04T08:49:35.578Z,19.13
2023-05-04T08:52:11.252Z,15.68
2023-05-04T08:54:40.048Z,15.98
2023-05-04T08:57:07.900Z,16.30
2023-05-04T08:59:36.878Z,14.73
2023-05-04T09:02:05.975Z,16.75
2023-05-04T09:04:35.884Z,16.40
2023-05-04T09:07:03.860Z,15.05
2023-05-04T09:09:31.707Z,15.15
2023-05-04T09:12:00.339Z,14.68
2023-05-04T09:14:35.044Z,16.58
2023-05-04T09:17:03.948Z,13.32
2023-05-04T09:19:34.907Z,13.27
2023-05-04T09:22:20.333Z,12.48
2023-05-04T09:24:47.883Z,17.48
2023-05-04T09:27:18.087Z,17.77
2023-05-04T09:29:53.875Z,14.60
2023-05-04T09:32:24.262Z,16.73
2023-05-04T09:34:53.361Z,20.60
2023-05-04T09:37:22.537Z,18.13
2023-05-04T09:39:56.105Z,11.63
2023-05-04T09:42:24.887Z,18.77
2023-05-04T09:45:21.752Z,16.50
2023-05-04T09:48:02.491Z,18.27
2023-05-04T09:50:33.255Z,12.52
2023-05-04T09:53:02.609Z,16.70
2023-05-04T09:55:30.271Z,15.55
2023-05-04T09:57:59.833Z,17.20
2023-05-04T10:00:27.308Z,15.73
2023-05-04T10:02:55.671Z,16.75
2023-05-04T10:05:31.547Z,13.02
2023-05-04T10:08:00.753Z,16.48
2023-05-04T10:10:35.988Z,11.20
2023-05-04T10:13:03.588Z,16.20
2023-05-04T10:15:32.190Z,14.52
2023-05-04T10:18:24.306Z,18.10
2023-05-04T10:21:25.796Z,17.35
2023-05-04T10:23:53.267Z,13.27
2023-05-04T10:26:43.903Z,15.02
2023-05-04T10:29:29.270Z,16.00
2023-05-04T10:32:05.824Z,15.30
2023-05-04T10:34:34.955Z,15.88
2023-05-04T10:37:03.818Z,16.48
2023-05-04T10:39:33.565Z,15.70
2023-05-04T10:42:08.371Z,15.40
2023-05-04T10:44:55.095Z,13.43
2023-05-04T10:47:33.116Z,15.82
2023-05-04T10:50:12.304Z,13.27
2023-05-04T10:52:47.676Z,14.65
2023-05-04T10:55:16.015Z,13.77
2023-05-04T10:57:50.823Z,15.38
2023-05-04T11:00:19.225Z,16.17
2023-05-04T11:02:48.189Z,15.85
2023-05-04T11:05:20.487Z,15.65
2023-05-04T11:07:53.513Z,15.68
2023-05-04T11:10:25.653Z,14.25
2023-05-04T11:13:05.771Z,14.75
2023-05-04T11:15:46.428Z,14.90
2023-05-04T11:18:14.510Z,15.18
2023-05-04T11:20:47.520Z,14.93
2023-05-04T11:23:16.852Z,15.32
2023-05-04T11:25:47.458Z,14.93
2023-05-04T11:28:15.023Z,15.63
2023-05-04T11:30:44.655Z,13.98
2023-05-04T11:33:14.463Z,13.82
2023-05-04T11:35:43.889Z,13.52
2023-05-04T11:38:13.281Z,15.80
2023-05-04T11:40:48.106Z,13.73
2023-05-04T11:43:16.242Z,15.68
2023-05-04T11:45:46.428Z,17.08
2023-05-04T11:48:14.693Z,16.35
2023-05-04T11:50:45.661Z,16.98
2023-05-04T11:53:14.171Z,16.85
2023-05-04T11:55:42.742Z,17.48
2023-05-04T11:58:12.158Z,16.90
2023-05-04T12:00:44.863Z,15.27
2023-05-04T12:03:18.062Z,17.77
2023-05-04T12:05:52.732Z,13.45
2023-05-04T12:08:32.797Z,17.20
2023-05-04T12:11:16.168Z,16.17
2023-05-04T12:13:45.720Z,19.08
2023-05-04T12:16:18.436Z,17.33
2023-05-04T12:18:47.430Z,20.25
2023-05-04T12:21:15.805Z,19.40
2023-05-04T12:23:43.650Z,17.45
2023-05-04T12:26:11.961Z,21.00
2023-05-04T12:28:41.896Z,15.63
2023-05-04T12:31:12.460Z,16.00
2023-05-04T12:33:39.876Z,16.23
2023-05-04T12:36:08.248Z,20.60
2023-05-04T12:38:35.776Z,16.67
2023-05-04T12:41:04.522Z,17.15
2023-05-04T12:43:33.079Z,17.23
2023-05-04T12:46:00.658Z,19.73
2023-05-04T12:48:31.927Z,18.33
2023-05-04T12:51:00.919Z,19.17
2023-05-04T12:53:30.117Z,19.52
2023-05-04T12:56:01.068Z,17.88
2023-05-04T12:58:28.944Z,20.10
2023-05-04T13:00:57.835Z,22.13
2023-05-04T13:03:25.938Z,20.42
2023-05-04T13:05:53.555Z,19.50
2023-05-04T13:08:22.136Z,19.55
2023-05-04T13:10:50.600Z,17.35
2023-05-04T13:13:18.965Z,20.05
2023-05-04T13:15:53.026Z,20.38
2023-05-04T13:18:20.795Z,22.35
2023-05-04T13:20:48.418Z,14.80
2023-05-04T13:23:16.051Z,20.27
2023-05-04T13:25:46.839Z,19.13
2023-05-04T13:28:14.190Z,21.67
2023-05-04T13:30:41.565Z,22.13
2023-05-04T13:33:20.767Z,21.48
2023-05-04T13:35:58.124Z,18.00
2023-05-04T13:38:26.362Z,17.08
2023-05-04T13:40:55.416Z,18.98
2023-05-04T13:43:22.880Z,20.58
2023-05-04T13:45:50.562Z,20.90
2023-05-04T13:48:18.229Z,21.23
2023-05-04T13:50:46.054Z,14.23
2023-05-04T13:53:13.506Z,21.17
2023-05-04T13:55:41.403Z,20.25
2023-05-04T13:58:09.172Z,21.50
2023-05-04T14:00:37.176Z,22.60
2023-05-04T14:03:05.075Z,21.50
2023-05-04T14:05:32.602Z,21.15
2023-05-04T14:08:00.025Z,22.38
2023-05-04T14:10:27.634Z,21.60
2023-05-04T14:12:56.001Z,21.88
2023-05-04T14:15:23.549Z,21.98
2023-05-04T14:17:51.026Z,17.92
2023-05-04T14:20:19.112Z,18.90
2023-05-04T14:22:46.366Z,19.70
2023-05-04T14:25:14.059Z,22.08
2023-05-04T14:27:44.511Z,21.73
2023-05-04T14:30:12.472Z,20.27
2023-05-04T14:32:41.263Z,20.15
2023-05-04T14:35:10.495Z,17.63
2023-05-04T14:37:39.662Z,18.60
2023-05-04T14:40:11.167Z,19.42
2023-05-04T14:42:39.287Z,18.65
2023-05-04T14:45:08.833Z,18.45
2023-05-04T14:47:36.580Z,19.13
2023-05-04T14:50:05.268Z,18.10
2023-05-04T14:52:34.134Z,19.40
2023-05-04T14:55:02.644Z,17.88
2023-05-04T14:57:30.075Z,20.08
2023-05-04T14:59:57.731Z,14.65
2023-05-04T15:02:25.176Z,17.55
2023-05-04T15:04:52.985Z,18.42
2023-05-04T15:07:20.802Z,17.52
2023-05-04T15:09:48.285Z,18.27
2023-05-04T15:12:16.515Z,18.15
2023-05-04T15:14:44.083Z,19.63
2023-05-04T15:17:11.367Z,18.52
2023-05-04T15:19:39.709Z,19.17
2023-05-04T15:22:07.413Z,19.33
2023-05-04T15:24:34.855Z,20.08
2023-05-04T15:27:02.319Z,18.20
2023-05-04T15:29:30.778Z,19.50
2023-05-04T15:31:58.185Z,20.77
2023-05-04T15:34:25.719Z,21.60
2023-05-04T15:36:53.561Z,20.13
2023-05-04T15:39:20.982Z,20.05
2023-05-04T15:41:48.303Z,20.15
2023-05-04T15:44:15.746Z,20.33
2023-05-04T15:46:43.343Z,20.88
2023-05-04T15:49:10.740Z,19.70
2023-05-04T15:51:38.267Z,20.15
2023-05-04T15:54:05.865Z,20.65
2023-05-04T15:56:33.230Z,20.92
2023-05-04T15:59:01.306Z,20.27
2023-05-04T16:01:29.075Z,22.35
2023-05-04T16:03:56.630Z,18.40
2023-05-04T16:06:24.078Z,18.45
2023-05-04T16:08:51.637Z,19.48
2023-05-04T16:11:19.045Z,20.50
2023-05-04T16:13:46.438Z,18.67
2023-05-04T16:16:13.895Z,18.70
2023-05-04T16:18:43.321Z,19.70
2023-05-04T16:21:11.220Z,16.98
2023-05-04T16:23:40.563Z,16.75
2023-05-04T16:26:08.422Z,15.10
2023-05-04T16:28:35.885Z,5.55
2023-05-04T16:31:06.043Z,5.05
2023-05-04T16:33:33.530Z,4.65
2023-05-04T16:36:00.924Z,4.60
2023-05-04T16:38:29.648Z,4.00
2023-05-04T16:40:56.900Z,3.30
2023-05-04T16:43:24.425Z,4.00
2023-05-04T16:45:51.930Z,4.43
2023-05-04T16:48:20.860Z,3.35
2023-05-04T16:50:48.214Z,3.78
2023-05-04T16:53:16.316Z,4.28
2023-05-04T16:55:43.650Z,4.88
2023-05-04T16:58:10.966Z,4.15
2023-05-04T17:00:41.939Z,3.53
2023-05-04T17:03:09.392Z,3.35
2023-05-04T17:05:36.833Z,3.35
2023-05-04T17:08:08.338Z,3.33
2023-05-04T17:10:35.720Z,3.35
2023-05-04T17:13:03.196Z,2.70
2023-05-04T17:15:30.578Z,2.90
2023-05-04T17:17:58.017Z,3.05
2023-05-04T17:20:29.944Z,3.38
2023-05-04T17:23:00.573Z,3.92
2023-05-04T17:25:28.078Z,2.47
2023-05-04T17:27:55.587Z,3.58
2023-05-04T17:30:25.775Z,3.33
2023-05-04T17:32:54.641Z,2.05
2023-05-04T17:35:26.606Z,1.63
2023-05-04T17:37:58.817Z,1.77
2023-05-04T17:40:27.763Z,2.10
2023-05-04T17:42:56.085Z,3.05
2023-05-04T17:45:23.522Z,3.08
2023-05-04T17:47:51.284Z,2.63
2023-05-04T17:50:18.984Z,2.92
2023-05-04T17:52:51.773Z,2.20
2023-05-04T17:55:19.324Z,2.67
2023-05-04T17:57:46.767Z,2.70
2023-05-04T18:00:14.935Z,2.50
2023-05-04T18:02:42.443Z,2.40
2023-05-04T18:05:10.384Z,3.20
2023-05-04T18:07:38.597Z,2.38
2023-05-04T18:10:06.717Z,2.85
2023-05-04T18:12:37.793Z,3.08
2023-05-04T18:15:09.127Z,3.55
2023-05-04T18:17:38.355Z,3.03
2023-05-04T18:20:08.301Z,3.50
2023-05-04T18:22:36.869Z,3.05
2023-05-04T18:25:04.549Z,3.20
2023-05-04T18:27:33.559Z,2.83
2023-05-04T18:30:01.789Z,2.95
2023-05-04T18:32:29.523Z,4.57
2023-05-04T18:35:00.028Z,3.03
2023-05-04T18:37:31.042Z,3.55
2023-05-04T18:39:58.919Z,3.75
2023-05-04T18:42:29.047Z,3.30
2023-05-04T18:44:56.830Z,2.58
2023-05-04T18:47:24.158Z,2.38
2023-05-04T18:49:54.458Z,2.78
2023-05-04T18:52:22.236Z,3.30
2023-05-04T18:54:49.744Z,2.53
2023-05-04T18:57:18.163Z,2.65
2023-05-04T18:59:46.014Z,2.33
2023-05-04T19:02:13.340Z,3.00
2023-05-04T19:04:41.216Z,3.13
2023-05-04T19:07:09.897Z,2.95
2023-05-04T19:09:38.728Z,3.22
2023-05-04T19:12:06.617Z,3.40
2023-05-04T19:14:34.001Z,3.13
2023-05-04T19:17:04.469Z,3.42
2023-05-04T19:19:36.447Z,3.30
2023-05-04T19:22:04.476Z,3.90
2023-05-04T19:24:34.685Z,3.72
2023-05-04T19:27:02.751Z,4.72
2023-05-04T19:29:30.687Z,3.42
2023-05-04T19:31:59.519Z,4.60
2023-05-04T19:34:29.110Z,4.93
2023-05-04T19:36:59.266Z,4.30
2023-05-04T19:39:26.882Z,4.15
2023-05-04T19:41:54.825Z,4.43
2023-05-04T19:44:22.210Z,4.10
2023-05-04T19:46:51.691Z,5.35
2023-05-04T19:49:21.826Z,4.47
2023-05-04T19:51:49.153Z,4.57
2023-05-04T19:54:16.747Z,4.35
2023-05-04T19:56:44.580Z,4.28
2023-05-04T19:59:15.082Z,4.88
2023-05-04T20:01:42.550Z,4.60
2023-05-04T20:04:10.343Z,4.60
2023-05-04T20:06:37.941Z,5.15
2023-05-04T20:09:05.597Z,4.03
2023-05-04T20:11:39.217Z,5.32
2023-05-04T20:14:09.656Z,4.55
2023-05-04T20:16:38.454Z,3.83
2023-05-04T20:19:07.530Z,4.43
2023-05-04T20:21:37.718Z,5.53
2023-05-04T20:24:07.473Z,6.03
2023-05-04T20:26:34.843Z,5.90
2023-05-04T20:29:02.159Z,6.28
2023-05-04T20:31:30.041Z,6.70
2023-05-04T20:33:57.818Z,6.75
2023-05-04T20:36:25.217Z,6.75
2023-05-04T20:38:54.191Z,6.85
2023-05-04T20:41:22.422Z,6.15
2023-05-04T20:43:50.325Z,7.18
2023-05-04T20:46:29.390Z,6.03
2023-05-04T20:49:07.386Z,6.57
2023-05-04T20:51:43.175Z,6.60
2023-05-04T20:54:17.942Z,6.88
2023-05-04T20:56:52.788Z,7.95
2023-05-04T20:59:46.903Z,8.85
2023-05-04T21:02:14.622Z,7.32
2023-05-04T21:04:43.376Z,8.32
2023-05-04T21:07:11.049Z,8.45
2023-05-04T21:12:21.175Z,8.40
2023-05-04T21:14:52.285Z,8.98
2023-05-04T21:17:20.195Z,7.80
2023-05-04T21:19:47.634Z,8.70
2023-05-04T21:22:17.636Z,9.15
2023-05-04T21:24:46.820Z,9.23
2023-05-04T21:28:11.097Z,10.05
2023-05-04T21:30:38.173Z,9.85
2023-05-04T21:34:12.381Z,10.23
2023-05-04T21:39:16.786Z,8.45
2023-05-04T21:41:47.789Z,8.43
2023-05-04T21:44:34.979Z,8.52
2023-05-04T21:47:08.301Z,9.95
2023-05-04T21:50:08.406Z,9.32
2023-05-04T21:52:36.258Z,9.52
2023-05-04T21:55:07.644Z,10.85
2023-05-04T21:57:43.077Z,9.38
2023-05-04T22:00:30.393Z,9.30
2023-05-04T22:03:16.043Z,9.02
2023-05-04T22:06:06.203Z,8.00
2023-05-04T22:09:09.203Z,8.18
2023-05-04T22:11:57.419Z,6.93
2023-05-04T22:14:32.962Z,6.60
2023-05-04T22:17:31.070Z,6.72
2023-05-04T22:19:58.675Z,5.25
2023-05-04T22:22:26.345Z,6.25
2023-05-04T22:24:57.612Z,6.38
2023-05-04T22:27:32.798Z,5.05
2023-05-04T22:30:06.743Z,5.47
2023-05-04T22:32:35.277Z,3.40
2023-05-04T22:35:03.560Z,3.80
2023-05-04T22:37:31.125Z,2.42
2023-05-04T22:40:08.676Z,2.47
2023-05-04T22:42:36.827Z,2.67
2023-05-04T22:45:14.928Z,2.50
2023-05-04T22:47:43.796Z,1.88
2023-05-04T22:50:17.618Z,4.25
2023-05-04T22:52:49.606Z,1.65
2023-05-04T22:56:21.363Z,2.08
2023-05-04T22:58:23.527Z,1.30
2023-05-04T23:01:18.290Z,2.35
2023-05-04T23:03:46.625Z,1.10
2023-05-04T23:06:15.289Z,2.35
2023-05-04T23:08:46.410Z,2.00
2023-05-04T23:11:14.348Z,1.50
2023-05-04T23:13:42.100Z,2.10
2023-05-04T23:19:10.904Z,2.08
2023-05-04T23:21:50.152Z,2.63
2023-05-04T23:24:18.222Z,2.00
2023-05-04T23:26:45.940Z,2.00
2023-05-04T23:29:20.138Z,2.20
2023-05-04T23:34:33.727Z,2.97
2023-05-04T23:40:19.193Z,1.80
2023-05-04T23:43:17.079Z,2.05
2023-05-04T23:45:44.685Z,2.33
2023-05-04T23:48:12.546Z,1.95
2023-05-04T23:51:07.279Z,1.80
2023-05-04T23:53:45.945Z,2.28
2023-05-04T23:56:15.997Z,1.58
2023-05-04T23:59:59.532Z,1.90
